Index Module Time&Date Lat. Long. Hardware Temperature Seawater Temperature Conductivity (µS/cm) Salinity (ppt) No. of Satellites Signal strength
125245 Sailing 2 20:49 08/05/2020 43.0878486633 141.3576507568 11852020.0 1.7 92.1 1.0 6.0 0
125244 Sailing 2 20:48 08/05/2020 43.0879325867 141.357421875 11852020.0 2.4 67.8 1.0 7.0 0
125243 Sailing 2 20:49 08/05/2020 43.0878486633 141.3576507568 11852020.0 1.7 92.1 1.0 6.0 0
125242 Sailing 2 20:48 08/05/2020 43.0879325867 141.357421875 11852020.0 2.4 67.8 1.0 7.0 0
125241 Sailing 2 20:49 08/05/2020 43.0878486633 141.3576507568 11852020.0 1.7 92.1 1.0 6.0 0
125240 Sailing 2 20:48 08/05/2020 43.0879325867 141.357421875 11852020.0 2.4 67.8 1.0 7.0 0
125239 Sailing 2 21:03 20/05/2020 43.0834388733 141.3561553955 342122052020.0 2.4 76.7 1.0 8.0 0
125238 Sailing 2 21:03 20/05/2020 43.0834388733 141.3561553955 342122052020.0 2.4 76.7 1.0 8.0 0
125237 Sailing 2 21:03 20/05/2020 43.0834388733 141.3561553955 342122052020.0 2.4 76.7 1.0 8.0 0
125236 Sailing 2 21:03 20/05/2020 43.0834312439 141.3560180664 342122052020.0 2.4 76.7 1.0 7.0 0
125235 Sailing 2 21:03 20/05/2020 43.0834083557 141.3558654785 342122052020.0 2.5 83.1 1.0 7.0 0
125234 Sailing 2 21:03 20/05/2020 43.0833740234 141.355682373 342122052020.0 2.5 83.1 1.0 7.0 0
125233 Sailing 2 21:02 20/05/2020 43.0833740234 141.3555145264 342122052020.0 0.5 161.0 1.0 7.0 0
125232 Sailing 2 21:02 20/05/2020 43.083366394 141.3553314209 342122052020.0 0.5 161.0 1.0 7.0 0
125231 Sailing 2 21:02 20/05/2020 43.0833740234 141.3552093506 342122052020.0 0.3 188.2 1.0 7.0 0
125230 Sailing 2 21:02 20/05/2020 43.0833816528 141.3552093506 342122052020.0 0.1 169.0 1.0 7.0 0
125229 Sailing 2 21:03 20/05/2020 43.0834083557 141.3558654785 342122052020.0 2.5 83.1 1.0 7.0 0
125228 Sailing 2 21:03 20/05/2020 43.0833740234 141.355682373 342122052020.0 2.5 83.1 1.0 7.0 0
125227 Sailing 2 21:02 20/05/2020 43.0833740234 141.3555145264 342122052020.0 0.5 161.0 1.0 7.0 0
125226 Sailing 2 21:02 20/05/2020 43.083366394 141.3553314209 342122052020.0 0.5 161.0 1.0 7.0 0
125225 Sailing 2 21:02 20/05/2020 43.0833740234 141.3552093506 342122052020.0 0.3 188.2 1.0 7.0 0
125224 Sailing 2 21:02 20/05/2020 43.0833816528 141.3552093506 342122052020.0 0.1 169.0 1.0 7.0 0
125223 Sailing 2 21:07 20/05/2020 43.0834388733 141.3561553955 342122052020.0 2.4 76.7 1.0 8.0 0
125222 Sailing 2 21:07 20/05/2020 43.0834388733 141.3561553955 342122052020.0 2.4 76.7 1.0 8.0 0
125221 Sailing 2 21:06 20/05/2020 43.0834388733 141.3561553955 342122052020.0 2.4 76.7 1.0 8.0 0
125220 Sailing 2 21:06 20/05/2020 43.0834388733 141.3561553955 342122052020.0 2.4 76.7 1.0 8.0 0
125219 Sailing 2 21:06 20/05/2020 43.0834388733 141.3561553955 342122052020.0 2.4 76.7 1.0 8.0 0
125218 Sailing 2 21:06 20/05/2020 43.0834388733 141.3561553955 342122052020.0 2.4 76.7 1.0 8.0 0
125217 Sailing 2 21:06 20/05/2020 43.0834388733 141.3561553955 342122052020.0 2.4 76.7 1.0 8.0 0
125216 Sailing 2 21:06 20/05/2020 43.0834388733 141.3561553955 342122052020.0 2.4 76.7 1.0 8.0 0
125215 Sailing 2 21:05 20/05/2020 43.0834388733 141.3561553955 342122052020.0 2.4 76.7 1.0 8.0 0
125214 Sailing 2 21:05 20/05/2020 43.0834388733 141.3561553955 342122052020.0 2.4 76.7 1.0 8.0 0
125213 Sailing 2 21:05 20/05/2020 43.0834388733 141.3561553955 342122052020.0 2.4 76.7 1.0 8.0 0
125212 Sailing 2 21:05 20/05/2020 43.0834388733 141.3561553955 342122052020.0 2.4 76.7 1.0 8.0 0
125211 Sailing 2 21:05 20/05/2020 43.0834388733 141.3561553955 342122052020.0 2.4 76.7 1.0 8.0 0
125210 Sailing 2 21:05 20/05/2020 43.0834388733 141.3561553955 342122052020.0 2.4 76.7 1.0 8.0 0
125209 Sailing 2 21:04 20/05/2020 43.0834388733 141.3561553955 342122052020.0 2.4 76.7 1.0 8.0 0
125208 Sailing 2 21:04 20/05/2020 43.0834388733 141.3561553955 342122052020.0 2.4 76.7 1.0 8.0 0
125207 Sailing 2 21:04 20/05/2020 43.0834388733 141.3561553955 342122052020.0 2.4 76.7 1.0 8.0 0
125206 Sailing 2 21:04 20/05/2020 43.0834388733 141.3561553955 342122052020.0 2.4 76.7 1.0 8.0 0
125205 Sailing 2 21:04 20/05/2020 43.0834388733 141.3561553955 342122052020.0 2.4 76.7 1.0 8.0 0
125204 Sailing 2 21:04 20/05/2020 43.0834388733 141.3561553955 342122052020.0 2.4 76.7 1.0 8.0 0
125203 Sailing 2 21:03 20/05/2020 43.0834388733 141.3561553955 342122052020.0 2.4 76.7 1.0 8.0 0
125202 Sailing 2 21:03 20/05/2020 43.0834388733 141.3561553955 342122052020.0 2.4 76.7 1.0 8.0 0
125201 Sailing 2 21:03 20/05/2020 43.0834388733 141.3561553955 342122052020.0 2.4 76.7 1.0 8.0 0
125200 Sailing 2 21:03 20/05/2020 43.0834312439 141.3560180664 342122052020.0 2.4 76.7 1.0 7.0 0
125199 Sailing 2 21:03 20/05/2020 43.0834083557 141.3558654785 342122052020.0 2.5 83.1 1.0 7.0 0
125198 Sailing 2 21:03 20/05/2020 43.0833740234 141.355682373 342122052020.0 2.5 83.1 1.0 7.0 0
125197 Sailing 2 21:02 20/05/2020 43.0833740234 141.3555145264 342122052020.0 0.5 161.0 1.0 7.0 0
125196 Sailing 2 21:02 20/05/2020 43.083366394 141.3553314209 342122052020.0 0.5 161.0 1.0 7.0 0
125195 Sailing 2 21:02 20/05/2020 43.0833740234 141.3552093506 342122052020.0 0.3 188.2 1.0 7.0 0
125194 Sailing 2 21:02 20/05/2020 43.0833816528 141.3552093506 342122052020.0 0.1 169.0 1.0 7.0 0
125193 Sailing 2 20:48 08/05/2020 43.0879325867 141.357421875 363011852020.0 2.4 67.8 1.0 7.0 0
125192 Sailing 2 21:07 20/05/2020 43.0834388733 141.3561553955 342122052020.0 2.4 76.7 1.0 8.0 0
125191 Sailing 2 21:07 20/05/2020 43.0834388733 141.3561553955 342122052020.0 2.4 76.7 1.0 8.0 0
125190 Sailing 2 21:06 20/05/2020 43.0834388733 141.3561553955 342122052020.0 2.4 76.7 1.0 8.0 0
125189 Sailing 2 21:06 20/05/2020 43.0834388733 141.3561553955 342122052020.0 2.4 76.7 1.0 8.0 0
125188 Sailing 2 21:06 20/05/2020 43.0834388733 141.3561553955 342122052020.0 2.4 76.7 1.0 8.0 0
125187 Sailing 2 21:06 20/05/2020 43.0834388733 141.3561553955 342122052020.0 2.4 76.7 1.0 8.0 0
125186 Sailing 2 21:06 20/05/2020 43.0834388733 141.3561553955 342122052020.0 2.4 76.7 1.0 8.0 0
125185 Sailing 2 21:06 20/05/2020 43.0834388733 141.3561553955 342122052020.0 2.4 76.7 1.0 8.0 0
125184 Sailing 2 21:05 20/05/2020 43.0834388733 141.3561553955 342122052020.0 2.4 76.7 1.0 8.0 0
125183 Sailing 2 21:05 20/05/2020 43.0834388733 141.3561553955 342122052020.0 2.4 76.7 1.0 8.0 0
125182 Sailing 2 21:05 20/05/2020 43.0834388733 141.3561553955 342122052020.0 2.4 76.7 1.0 8.0 0
125181 Sailing 2 21:05 20/05/2020 43.0834388733 141.3561553955 342122052020.0 2.4 76.7 1.0 8.0 0
125180 Sailing 2 21:05 20/05/2020 43.0834388733 141.3561553955 342122052020.0 2.4 76.7 1.0 8.0 0
125179 Sailing 2 21:05 20/05/2020 43.0834388733 141.3561553955 342122052020.0 2.4 76.7 1.0 8.0 0
125178 Sailing 2 21:04 20/05/2020 43.0834388733 141.3561553955 342122052020.0 2.4 76.7 1.0 8.0 0
125177 Sailing 2 21:04 20/05/2020 43.0834388733 141.3561553955 342122052020.0 2.4 76.7 1.0 8.0 0
125176 Sailing 2 21:04 20/05/2020 43.0834388733 141.3561553955 342122052020.0 2.4 76.7 1.0 8.0 0
125175 Sailing 2 21:04 20/05/2020 43.0834388733 141.3561553955 342122052020.0 2.4 76.7 1.0 8.0 0
125174 Sailing 2 21:04 20/05/2020 43.0834388733 141.3561553955 342122052020.0 2.4 76.7 1.0 8.0 0
125173 Sailing 2 21:04 20/05/2020 43.0834388733 141.3561553955 342122052020.0 2.4 76.7 1.0 8.0 0
125172 Sailing 2 21:03 20/05/2020 43.0834388733 141.3561553955 342122052020.0 2.4 76.7 1.0 8.0 0
125171 Sailing 2 21:03 20/05/2020 43.0834388733 141.3561553955 342122052020.0 2.4 76.7 1.0 8.0 0
125170 Sailing 2 21:03 20/05/2020 43.0834388733 141.3561553955 342122052020.0 2.4 76.7 1.0 8.0 0
125169 Sailing 2 21:03 20/05/2020 43.0834312439 141.3560180664 342122052020.0 2.4 76.7 1.0 7.0 0
125168 Sailing 2 21:03 20/05/2020 43.0834083557 141.3558654785 342122052020.0 2.5 83.1 1.0 7.0 0
125167 Sailing 2 21:03 20/05/2020 43.0833740234 141.355682373 342122052020.0 2.5 83.1 1.0 7.0 0
125166 Sailing 2 21:02 20/05/2020 43.0833740234 141.3555145264 342122052020.0 0.5 161.0 1.0 7.0 0
125165 Sailing 2 21:02 20/05/2020 43.083366394 141.3553314209 342122052020.0 0.5 161.0 1.0 7.0 0
125164 Sailing 2 21:02 20/05/2020 43.0833740234 141.3552093506 342122052020.0 0.3 188.2 1.0 7.0 0
125163 Sailing 2 21:02 20/05/2020 43.0833816528 141.3552093506 342122052020.0 0.1 169.0 1.0 7.0 0
125162 Sailing 2 20:48 08/05/2020 43.0879325867 141.357421875 363011852020.0 2.4 67.8 1.0 7.0 0
125161 Sailing 2 20:49 08/05/2020 43.0878486633 141.3576507568 363011852020.0 1.7 92.1 1.0 6.0 0
125160 Sailing 2 20:48 08/05/2020 43.0879325867 141.357421875 363011852020.0 2.4 67.8 1.0 7.0 0
125159 Sailing 2 21:03 20/05/2020 43.0834388733 141.3561553955 342122052020.0 2.4 76.7 1.0 8.0 0
125158 Sailing 2 21:03 20/05/2020 43.0834388733 141.3561553955 342122052020.0 2.4 76.7 1.0 8.0 0
125157 Sailing 2 21:03 20/05/2020 43.0834388733 141.3561553955 342122052020.0 2.4 76.7 1.0 8.0 0
125156 Sailing 2 21:03 20/05/2020 43.0834312439 141.3560180664 342122052020.0 2.4 76.7 1.0 7.0 0
125155 Sailing 2 21:03 20/05/2020 43.0834083557 141.3558654785 342122052020.0 2.5 83.1 1.0 7.0 0
125154 Sailing 2 21:03 20/05/2020 43.0833740234 141.355682373 342122052020.0 2.5 83.1 1.0 7.0 0
125153 Sailing 2 21:02 20/05/2020 43.0833740234 141.3555145264 342122052020.0 0.5 161.0 1.0 7.0 0
125152 Sailing 2 21:02 20/05/2020 43.083366394 141.3553314209 342122052020.0 0.5 161.0 1.0 7.0 0
125151 Sailing 2 21:02 20/05/2020 43.0833740234 141.3552093506 342122052020.0 0.3 188.2 1.0 7.0 0
125150 Sailing 2 21:02 20/05/2020 43.0833816528 141.3552093506 342122052020.0 0.1 169.0 1.0 7.0 0
125149 Sailing 2 21:03 20/05/2020 43.0834083557 141.3558654785 342122052020.0 2.5 83.1 1.0 7.0 0
125148 Sailing 2 21:03 20/05/2020 43.0833740234 141.355682373 342122052020.0 2.5 83.1 1.0 7.0 0
125147 Sailing 2 21:02 20/05/2020 43.0833740234 141.3555145264 342122052020.0 0.5 161.0 1.0 7.0 0
125146 Sailing 2 21:02 20/05/2020 43.083366394 141.3553314209 342122052020.0 0.5 161.0 1.0 7.0 0
125145 Sailing 2 21:02 20/05/2020 43.0833740234 141.3552093506 342122052020.0 0.3 188.2 1.0 7.0 0
125144 Sailing 2 21:02 20/05/2020 43.0833816528 141.3552093506 342122052020.0 0.1 169.0 1.0 7.0 0
125143 Sailing 2 21:03 20/05/2020 43.0834388733 141.3561553955 342122052020.0 2.4 76.7 1.0 8.0 0
125142 Sailing 2 21:03 20/05/2020 43.0834388733 141.3561553955 342122052020.0 2.4 76.7 1.0 8.0 0
125141 Sailing 2 21:03 20/05/2020 43.0834388733 141.3561553955 342122052020.0 2.4 76.7 1.0 8.0 0
125140 Sailing 2 21:03 20/05/2020 43.0834312439 141.3560180664 342122052020.0 2.4 76.7 1.0 7.0 0
125139 Sailing 2 21:03 20/05/2020 43.0834083557 141.3558654785 342122052020.0 2.5 83.1 1.0 7.0 0
125138 Sailing 2 21:03 20/05/2020 43.0833740234 141.355682373 342122052020.0 2.5 83.1 1.0 7.0 0
125137 Sailing 2 21:02 20/05/2020 43.0833740234 141.3555145264 342122052020.0 0.5 161.0 1.0 7.0 0
125136 Sailing 2 21:02 20/05/2020 43.083366394 141.3553314209 342122052020.0 0.5 161.0 1.0 7.0 0
125135 Sailing 2 21:02 20/05/2020 43.0833740234 141.3552093506 342122052020.0 0.3 188.2 1.0 7.0 0
125134 Sailing 2 21:02 20/05/2020 43.0833816528 141.3552093506 342122052020.0 0.1 169.0 1.0 7.0 0
125133 Sailing 2 21:03 20/05/2020 43.0834083557 141.3558654785 342122052020.0 2.5 83.1 1.0 7.0 0
125132 Sailing 2 21:03 20/05/2020 43.0833740234 141.355682373 342122052020.0 2.5 83.1 1.0 7.0 0
125131 Sailing 2 21:02 20/05/2020 43.0833740234 141.3555145264 342122052020.0 0.5 161.0 1.0 7.0 0
125130 Sailing 2 21:02 20/05/2020 43.083366394 141.3553314209 342122052020.0 0.5 161.0 1.0 7.0 0
125129 Sailing 2 21:02 20/05/2020 43.0833740234 141.3552093506 342122052020.0 0.3 188.2 1.0 7.0 0
125128 Sailing 2 21:02 20/05/2020 43.0833816528 141.3552093506 342122052020.0 0.1 169.0 1.0 7.0 0
125127 Sailing 2 21:07 20/05/2020 43.0835762024 141.3550109863 87122052020.0 0.8 118.9 1.0 8.0 0
125126 Sailing 2 21:07 20/05/2020 43.0836105347 141.3549346924 87122052020.0 1.8 164.1 1.0 8.0 0
125125 Sailing 2 21:07 20/05/2020 43.0836105347 141.3549194336 87122052020.0 1.6 230.8 1.0 8.0 0
125124 Sailing 2 21:06 20/05/2020 43.0838546753 141.355178833 405122052020.0 2.1 70.5 1.0 8.0 0
125123 Sailing 2 21:06 20/05/2020 43.083820343 141.3550415039 405122052020.0 1.9 351.4 1.0 8.0 0
125122 Sailing 2 21:06 20/05/2020 43.0837631226 141.3549194336 405122052020.0 1.9 351.4 1.0 8.0 0
125121 Sailing 2 21:06 20/05/2020 43.0836524963 141.354888916 405122052020.0 1.6 294.5 1.0 8.0 0
125120 Sailing 2 21:05 20/05/2020 43.083530426 141.35496521 405122052020.0 1.6 294.5 1.0 8.0 0
125119 Sailing 2 21:05 20/05/2020 43.0834732056 141.3551483154 405122052020.0 0.8 293.3 1.0 8.0 0
125118 Sailing 2 21:05 20/05/2020 43.0834617615 141.3551635742 405122052020.0 1.3 294.8 1.0 8.0 0
125117 Sailing 2 21:05 20/05/2020 43.0833892822 141.3553619385 164122052020.0 2.1 278.5 1.0 8.0 0
125116 Sailing 2 21:04 20/05/2020 43.0833816528 141.3554992676 164122052020.0 1.8 240.1 1.0 8.0 0
125115 Sailing 2 21:04 20/05/2020 43.0833740234 141.3556671143 164122052020.0 1.8 242.1 1.0 8.0 0
125114 Sailing 2 21:04 20/05/2020 43.0834236145 141.3558197021 164122052020.0 2.1 246.0 1.0 8.0 0
125113 Sailing 2 21:04 20/05/2020 43.0834388733 141.3559875488 164122052020.0 1.0 267.5 1.0 8.0 0
125112 Sailing 2 21:04 20/05/2020 43.0834732056 141.3561553955 164122052020.0 0.9 283.2 1.0 8.0 0
125111 Sailing 2 21:04 20/05/2020 43.083480835 141.3561706543 164122052020.0 2.0 81.1 1.0 8.0 0
125110 Sailing 2 21:03 20/05/2020 43.0834388733 141.3561553955 342122052020.0 2.4 76.7 1.0 8.0 0
125109 Sailing 2 21:03 20/05/2020 43.0834312439 141.3560180664 342122052020.0 2.4 76.7 1.0 7.0 0
125108 Sailing 2 21:03 20/05/2020 43.0834083557 141.3558654785 342122052020.0 2.5 83.1 1.0 7.0 0
125107 Sailing 2 21:03 20/05/2020 43.0833740234 141.355682373 342122052020.0 2.5 83.1 1.0 7.0 0
125106 Sailing 2 21:02 20/05/2020 43.0833740234 141.3555145264 342122052020.0 0.5 161.0 1.0 7.0 0
125105 Sailing 2 21:02 20/05/2020 43.083366394 141.3553314209 342122052020.0 0.5 161.0 1.0 7.0 0
125104 Sailing 2 21:02 20/05/2020 43.0833740234 141.3552093506 342122052020.0 0.3 188.2 1.0 7.0 0
125103 Sailing 2 21:02 20/05/2020 43.0833816528 141.3552093506 342122052020.0 0.1 169.0 1.0 7.0 0
125102 Sailing 2 21:07 20/05/2020 43.0835762024 141.3550109863 87122052020.0 0.8 118.9 1.0 8.0 0
125101 Sailing 2 21:07 20/05/2020 43.0836105347 141.3549346924 87122052020.0 1.8 164.1 1.0 8.0 0
125100 Sailing 2 21:07 20/05/2020 43.0836105347 141.3549194336 87122052020.0 1.6 230.8 1.0 8.0 0
125099 Sailing 2 21:06 20/05/2020 43.0838546753 141.355178833 405122052020.0 2.1 70.5 1.0 8.0 0
125098 Sailing 2 21:06 20/05/2020 43.083820343 141.3550415039 405122052020.0 1.9 351.4 1.0 8.0 0
125097 Sailing 2 21:06 20/05/2020 43.0837631226 141.3549194336 405122052020.0 1.9 351.4 1.0 8.0 0
125096 Sailing 2 21:06 20/05/2020 43.0836524963 141.354888916 405122052020.0 1.6 294.5 1.0 8.0 0
125095 Sailing 2 21:05 20/05/2020 43.083530426 141.35496521 405122052020.0 1.6 294.5 1.0 8.0 0
125094 Sailing 2 21:05 20/05/2020 43.0834732056 141.3551483154 405122052020.0 0.8 293.3 1.0 8.0 0
125093 Sailing 2 21:05 20/05/2020 43.0834617615 141.3551635742 405122052020.0 1.3 294.8 1.0 8.0 0
125092 Sailing 2 21:05 20/05/2020 43.0833892822 141.3553619385 164122052020.0 2.1 278.5 1.0 8.0 0
125091 Sailing 2 21:04 20/05/2020 43.0833816528 141.3554992676 164122052020.0 1.8 240.1 1.0 8.0 0
125090 Sailing 2 21:04 20/05/2020 43.0833740234 141.3556671143 164122052020.0 1.8 242.1 1.0 8.0 0
125089 Sailing 2 21:04 20/05/2020 43.0834236145 141.3558197021 164122052020.0 2.1 246.0 1.0 8.0 0
125088 Sailing 2 21:04 20/05/2020 43.0834388733 141.3559875488 164122052020.0 1.0 267.5 1.0 8.0 0
125087 Sailing 2 21:04 20/05/2020 43.0834732056 141.3561553955 164122052020.0 0.9 283.2 1.0 8.0 0
125086 Sailing 2 21:04 20/05/2020 43.083480835 141.3561706543 164122052020.0 2.0 81.1 1.0 8.0 0
125085 Sailing 2 21:03 20/05/2020 43.0834388733 141.3561553955 342122052020.0 2.4 76.7 1.0 8.0 0
125084 Sailing 2 21:03 20/05/2020 43.0834312439 141.3560180664 342122052020.0 2.4 76.7 1.0 7.0 0
125083 Sailing 2 21:03 20/05/2020 43.0834083557 141.3558654785 342122052020.0 2.5 83.1 1.0 7.0 0
125082 Sailing 2 21:03 20/05/2020 43.0833740234 141.355682373 342122052020.0 2.5 83.1 1.0 7.0 0
125081 Sailing 2 21:02 20/05/2020 43.0833740234 141.3555145264 342122052020.0 0.5 161.0 1.0 7.0 0
125080 Sailing 2 21:02 20/05/2020 43.083366394 141.3553314209 342122052020.0 0.5 161.0 1.0 7.0 0
125079 Sailing 2 21:02 20/05/2020 43.0833740234 141.3552093506 342122052020.0 0.3 188.2 1.0 7.0 0
125078 Sailing 2 21:02 20/05/2020 43.0833816528 141.3552093506 342122052020.0 0.1 169.0 1.0 7.0 0
125077 Sailing 2 21:48 12/05/2020 43.0879402161 141.3573913574 3011852022.0 1.5 71.8 1.0 7.0 0
125076 Sailing 2 21:48 12/05/2020 43.0879325867 141.3573760986 3011852022.0 1.4 74.0 1.0 7.0 0
125075 Sailing 2 21:48 12/05/2020 43.0879402161 141.3573760986 3011852022.0 1.7 80.3 1.0 7.0 0
125074 Sailing 2 21:48 12/05/2020 43.0879402161 141.3573608398 3011852022.0 2.3 81.7 1.0 7.0 0
125073 Sailing 2 21:48 12/05/2020 43.0879402161 141.3573913574 3011852021.0 1.5 71.8 1.0 7.0 0
125072 Sailing 2 21:48 12/05/2020 43.0879325867 141.3573760986 3011852021.0 1.4 74.0 1.0 7.0 0
125071 Sailing 2 21:48 12/05/2020 43.0879402161 141.3573760986 3011852021.0 1.7 80.3 1.0 7.0 0
125070 Sailing 2 21:48 12/05/2020 43.0879402161 141.3573608398 3011852021.0 2.3 81.7 1.0 7.0 0
125069 Sailing 2 20:48 12/05/2020 43.0879402161 141.3573913574 3011852020.0 1.5 71.8 1.0 7.0 0
125068 Sailing 2 20:48 12/05/2020 43.0879325867 141.3573760986 3011852020.0 1.4 74.0 1.0 7.0 0
125067 Sailing 2 20:48 12/05/2020 43.0879402161 141.3573760986 3011852020.0 1.7 80.3 1.0 7.0 0
125066 Sailing 2 20:48 12/05/2020 43.0879402161 141.3573608398 3011852020.0 2.3 81.7 1.0 7.0 0
125065 Sailing 2 20:48 12/05/2020 43.0879402161 141.3573913574 3011852020.0 1.5 71.8 1.0 7.0 0
125064 Sailing 2 20:48 12/05/2020 43.0879325867 141.3573760986 3011852020.0 1.4 74.0 1.0 7.0 0
125063 Sailing 2 20:48 12/05/2020 43.0879402161 141.3573760986 3011852020.0 1.7 80.3 1.0 7.0 0
125062 Sailing 2 20:48 12/05/2020 43.0879402161 141.3573608398 3011852020.0 2.3 81.7 1.0 7.0 0
125061 Sailing 2 21:48 12/05/2020 43.0879402161 141.3573913574 3011852022.0 1.5 71.8 1.0 7.0 0
125060 Sailing 2 21:48 12/05/2020 43.0879325867 141.3573760986 3011852022.0 1.4 74.0 1.0 7.0 0
125059 Sailing 2 21:48 12/05/2020 43.0879402161 141.3573760986 3011852022.0 1.7 80.3 1.0 7.0 0
125058 Sailing 2 21:48 12/05/2020 43.0879402161 141.3573608398 3011852022.0 2.3 81.7 1.0 7.0 0
125057 Sailing 2 21:48 12/05/2020 43.0879402161 141.3573913574 3011852021.0 1.5 71.8 1.0 7.0 0
125056 Sailing 2 21:48 12/05/2020 43.0879325867 141.3573760986 3011852021.0 1.4 74.0 1.0 7.0 0
125055 Sailing 2 21:48 12/05/2020 43.0879402161 141.3573760986 3011852021.0 1.7 80.3 1.0 7.0 0
125054 Sailing 2 21:48 12/05/2020 43.0879402161 141.3573608398 3011852021.0 2.3 81.7 1.0 7.0 0
125053 Sailing 2 20:48 12/05/2020 43.0879402161 141.3573913574 3011852020.0 1.5 71.8 1.0 7.0 0
125052 Sailing 2 20:48 12/05/2020 43.0879325867 141.3573760986 3011852020.0 1.4 74.0 1.0 7.0 0
125051 Sailing 2 20:48 12/05/2020 43.0879402161 141.3573760986 3011852020.0 1.7 80.3 1.0 7.0 0
125050 Sailing 2 20:48 12/05/2020 43.0879402161 141.3573608398 3011852020.0 2.3 81.7 1.0 7.0 0
125049 Sailing 2 20:48 12/05/2020 43.0879402161 141.3573913574 3011852020.0 1.5 71.8 1.0 7.0 0
125048 Sailing 2 20:48 12/05/2020 43.0879325867 141.3573760986 3011852020.0 1.4 74.0 1.0 7.0 0
125047 Sailing 2 20:48 12/05/2020 43.0879402161 141.3573760986 3011852020.0 1.7 80.3 1.0 7.0 0
125046 Sailing 2 20:48 12/05/2020 43.0879402161 141.3573608398 3011852020.0 2.3 81.7 1.0 7.0 0
125045 Sailing 2 20:48 12/05/2020 43.0879402161 141.3573913574 3011852020.0 1.5 71.8 1.0 7.0 0
125044 Sailing 2 20:48 12/05/2020 43.0879325867 141.3573760986 3011852020.0 1.4 74.0 1.0 7.0 0
125043 Sailing 2 20:48 12/05/2020 43.0879402161 141.3573760986 3011852020.0 1.7 80.3 1.0 7.0 0
125042 Sailing 2 20:48 12/05/2020 43.0879402161 141.3573608398 3011852020.0 2.3 81.7 1.0 7.0 0
125041 Sailing 2 21:48 12/05/2020 43.0879402161 141.3573913574 3011852022.0 1.5 71.8 1.0 7.0 0
125040 Sailing 2 21:48 12/05/2020 43.0879325867 141.3573760986 3011852022.0 1.4 74.0 1.0 7.0 0
125039 Sailing 2 21:48 12/05/2020 43.0879402161 141.3573760986 3011852022.0 1.7 80.3 1.0 7.0 0
125038 Sailing 2 21:48 12/05/2020 43.0879402161 141.3573608398 3011852022.0 2.3 81.7 1.0 7.0 0
125037 Sailing 2 21:48 12/05/2020 43.0879402161 141.3573913574 3011852021.0 1.5 71.8 1.0 7.0 0
125036 Sailing 2 21:48 12/05/2020 43.0879325867 141.3573760986 3011852021.0 1.4 74.0 1.0 7.0 0
125035 Sailing 2 21:48 12/05/2020 43.0879402161 141.3573760986 3011852021.0 1.7 80.3 1.0 7.0 0
125034 Sailing 2 21:48 12/05/2020 43.0879402161 141.3573608398 3011852021.0 2.3 81.7 1.0 7.0 0
125033 Sailing 2 20:48 12/05/2020 43.0879402161 141.3573913574 3011852020.0 1.5 71.8 1.0 7.0 0
125032 Sailing 2 20:48 12/05/2020 43.0879325867 141.3573760986 3011852020.0 1.4 74.0 1.0 7.0 0
125031 Sailing 2 20:48 12/05/2020 43.0879402161 141.3573760986 3011852020.0 1.7 80.3 1.0 7.0 0
125030 Sailing 2 20:48 12/05/2020 43.0879402161 141.3573608398 3011852020.0 2.3 81.7 1.0 7.0 0
125029 Sailing 2 21:48 12/05/2020 43.0879402161 141.3573913574 3011852021.0 1.5 71.8 1.0 7.0 0
125028 Sailing 2 21:48 12/05/2020 43.0879325867 141.3573760986 3011852021.0 1.4 74.0 1.0 7.0 0
125027 Sailing 2 21:48 12/05/2020 43.0879402161 141.3573760986 3011852021.0 1.7 80.3 1.0 7.0 0
125026 Sailing 2 21:48 12/05/2020 43.0879402161 141.3573608398 3011852021.0 2.3 81.7 1.0 7.0 0
125025 Sailing 2 20:48 12/05/2020 43.0879402161 141.3573913574 3011852020.0 1.5 71.8 1.0 7.0 0
125024 Sailing 2 20:48 12/05/2020 43.0879325867 141.3573760986 3011852020.0 1.4 74.0 1.0 7.0 0
125023 Sailing 2 20:48 12/05/2020 43.0879402161 141.3573760986 3011852020.0 1.7 80.3 1.0 7.0 0
125022 Sailing 2 20:48 12/05/2020 43.0879402161 141.3573608398 3011852020.0 2.3 81.7 1.0 7.0 0
125021 Sailing 2 21:48 12/05/2020 43.0879402161 141.3573913574 3011852022.0 1.5 71.8 1.0 7.0 0
125020 Sailing 2 21:48 12/05/2020 43.0879325867 141.3573760986 3011852022.0 1.4 74.0 1.0 7.0 0
125019 Sailing 2 21:48 12/05/2020 43.0879402161 141.3573760986 3011852022.0 1.7 80.3 1.0 7.0 0
125018 Sailing 2 21:48 12/05/2020 43.0879402161 141.3573608398 3011852022.0 2.3 81.7 1.0 7.0 0
125017 Sailing 2 21:48 12/05/2020 43.0879402161 141.3573913574 3011852022.0 1.5 71.8 1.0 7.0 0
125016 Sailing 2 21:48 12/05/2020 43.0879325867 141.3573760986 3011852022.0 1.4 74.0 1.0 7.0 0
125015 Sailing 2 21:48 12/05/2020 43.0879402161 141.3573760986 3011852022.0 1.7 80.3 1.0 7.0 0
125014 Sailing 2 21:48 12/05/2020 43.0879402161 141.3573608398 3011852022.0 2.3 81.7 1.0 7.0 0
125013 Sailing 2 21:48 12/05/2020 43.0879402161 141.3573913574 3011852021.0 1.5 71.8 1.0 7.0 0
125012 Sailing 2 21:48 12/05/2020 43.0879325867 141.3573760986 3011852021.0 1.4 74.0 1.0 7.0 0
125011 Sailing 2 21:48 12/05/2020 43.0879402161 141.3573760986 3011852021.0 1.7 80.3 1.0 7.0 0
125010 Sailing 2 21:48 12/05/2020 43.0879402161 141.3573608398 3011852021.0 2.3 81.7 1.0 7.0 0
125009 Sailing 2 20:48 12/05/2020 43.0879402161 141.3573913574 3011852020.0 1.5 71.8 1.0 7.0 0
125008 Sailing 2 20:48 12/05/2020 43.0879325867 141.3573760986 3011852020.0 1.4 74.0 1.0 7.0 0
125007 Sailing 2 20:48 12/05/2020 43.0879402161 141.3573760986 3011852020.0 1.7 80.3 1.0 7.0 0
125006 Sailing 2 20:48 12/05/2020 43.0879402161 141.3573608398 3011852020.0 2.3 81.7 1.0 7.0 0
125005 Sailing 2 21:48 12/05/2020 43.0879402161 141.3573913574 3011852022.0 1.5 71.8 1.0 7.0 0
125004 Sailing 2 21:48 12/05/2020 43.0879325867 141.3573760986 3011852022.0 1.4 74.0 1.0 7.0 0
125003 Sailing 2 21:48 12/05/2020 43.0879402161 141.3573760986 3011852022.0 1.7 80.3 1.0 7.0 0
125002 Sailing 2 21:48 12/05/2020 43.0879402161 141.3573608398 3011852022.0 2.3 81.7 1.0 7.0 0
125001 Sailing 2 21:48 12/05/2020 43.0879402161 141.3573913574 3011852022.0 1.5 71.8 1.0 7.0 0
125000 Sailing 2 21:48 12/05/2020 43.0879325867 141.3573760986 3011852022.0 1.4 74.0 1.0 7.0 0
124999 Sailing 2 21:48 12/05/2020 43.0879402161 141.3573760986 3011852022.0 1.7 80.3 1.0 7.0 0
124998 Sailing 2 21:48 12/05/2020 43.0879402161 141.3573608398 3011852022.0 2.3 81.7 1.0 7.0 0
124997 Sailing 2 20:48 12/05/2020 43.0879402161 141.3573913574 3011852020.0 1.5 71.8 1.0 7.0 0
124996 Sailing 2 20:48 12/05/2020 43.0879325867 141.3573760986 3011852020.0 1.4 74.0 1.0 7.0 0
124995 Sailing 2 20:48 12/05/2020 43.0879402161 141.3573760986 3011852020.0 1.7 80.3 1.0 7.0 0
124994 Sailing 2 20:48 12/05/2020 43.0879402161 141.3573608398 3011852020.0 2.3 81.7 1.0 7.0 0
124993 Sailing 2 20:48 12/05/2020 43.0879402161 141.3573913574 3011852020.0 1.5 71.8 1.0 7.0 0
124992 Sailing 2 20:48 12/05/2020 43.0879325867 141.3573760986 3011852020.0 1.4 74.0 1.0 7.0 0
124991 Sailing 2 20:48 12/05/2020 43.0879402161 141.3573760986 3011852020.0 1.7 80.3 1.0 7.0 0
124990 Sailing 2 20:48 12/05/2020 43.0879402161 141.3573608398 3011852020.0 2.3 81.7 1.0 7.0 0
124989 Sailing 2 20:48 12/05/2020 43.0879402161 141.3573913574 3011852020.0 1.5 71.8 1.0 7.0 0
124988 Sailing 2 20:48 12/05/2020 43.0879325867 141.3573760986 3011852020.0 1.4 74.0 1.0 7.0 0
124987 Sailing 2 20:48 12/05/2020 43.0879402161 141.3573760986 3011852020.0 1.7 80.3 1.0 7.0 0
124986 Sailing 2 20:48 12/05/2020 43.0879402161 141.3573608398 3011852020.0 2.3 81.7 1.0 7.0 0
124985 Sailing 2 20:48 12/05/2020 43.0879402161 141.3573913574 3011852020.0 1.5 71.8 1.0 7.0 0
124984 Sailing 2 20:48 12/05/2020 43.0879325867 141.3573760986 3011852020.0 1.4 74.0 1.0 7.0 0
124983 Sailing 2 20:48 12/05/2020 43.0879402161 141.3573760986 3011852020.0 1.7 80.3 1.0 7.0 0
124982 Sailing 2 20:48 12/05/2020 43.0879402161 141.3573608398 3011852020.0 2.3 81.7 1.0 7.0 0
124981 Sailing 2 20:48 12/05/2020 43.0879402161 141.3573913574 3011852020.0 1.5 71.8 1.0 7.0 0
124980 Sailing 2 20:48 12/05/2020 43.0879325867 141.3573760986 3011852020.0 1.4 74.0 1.0 7.0 0
124979 Sailing 2 20:48 12/05/2020 43.0879402161 141.3573760986 3011852020.0 1.7 80.3 1.0 7.0 0
124978 Sailing 2 20:48 12/05/2020 43.0879402161 141.3573608398 3011852020.0 2.3 81.7 1.0 7.0 0
124977 Sailing 2 21:48 12/05/2020 43.0879402161 141.3573913574 3011852022.0 1.5 71.8 1.0 7.0 0
124976 Sailing 2 21:48 12/05/2020 43.0879325867 141.3573760986 3011852022.0 1.4 74.0 1.0 7.0 0
124975 Sailing 2 21:48 12/05/2020 43.0879402161 141.3573760986 3011852022.0 1.7 80.3 1.0 7.0 0
124974 Sailing 2 21:48 12/05/2020 43.0879402161 141.3573608398 3011852022.0 2.3 81.7 1.0 7.0 0
124973 Sailing 2 21:48 12/05/2020 43.0879402161 141.3573913574 3011852022.0 1.5 71.8 1.0 7.0 0
124972 Sailing 2 21:48 12/05/2020 43.0879325867 141.3573760986 3011852022.0 1.4 74.0 1.0 7.0 0
124971 Sailing 2 21:48 12/05/2020 43.0879402161 141.3573760986 3011852022.0 1.7 80.3 1.0 7.0 0
124970 Sailing 2 21:48 12/05/2020 43.0879402161 141.3573608398 3011852022.0 2.3 81.7 1.0 7.0 0
124969 Sailing 2 21:48 12/05/2020 43.0879402161 141.3573913574 3011852022.0 1.5 71.8 1.0 7.0 0
124968 Sailing 2 21:48 12/05/2020 43.0879325867 141.3573760986 3011852022.0 1.4 74.0 1.0 7.0 0
124967 Sailing 2 21:48 12/05/2020 43.0879402161 141.3573760986 3011852022.0 1.7 80.3 1.0 7.0 0
124966 Sailing 2 21:48 12/05/2020 43.0879402161 141.3573608398 3011852022.0 2.3 81.7 1.0 7.0 0
124965 Sailing 2 21:48 12/05/2020 43.0879402161 141.3573913574 3011852021.0 1.5 71.8 1.0 7.0 0
124964 Sailing 2 21:48 12/05/2020 43.0879325867 141.3573760986 3011852021.0 1.4 74.0 1.0 7.0 0
124963 Sailing 2 21:48 12/05/2020 43.0879402161 141.3573760986 3011852021.0 1.7 80.3 1.0 7.0 0
124962 Sailing 2 21:48 12/05/2020 43.0879402161 141.3573608398 3011852021.0 2.3 81.7 1.0 7.0 0
124961 Sailing 2 20:48 12/05/2020 43.0879402161 141.3573913574 3011852020.0 1.5 71.8 1.0 7.0 0
124960 Sailing 2 20:48 12/05/2020 43.0879325867 141.3573760986 3011852020.0 1.4 74.0 1.0 7.0 0
124959 Sailing 2 20:48 12/05/2020 43.0879402161 141.3573760986 3011852020.0 1.7 80.3 1.0 7.0 0
124958 Sailing 2 20:48 12/05/2020 43.0879402161 141.3573608398 3011852020.0 2.3 81.7 1.0 7.0 0
124957 Sailing 2 20:48 12/05/2020 43.0879402161 141.3573913574 3011852020.0 1.5 71.8 1.0 7.0 0
124956 Sailing 2 20:48 12/05/2020 43.0879325867 141.3573760986 3011852020.0 1.4 74.0 1.0 7.0 0
124955 Sailing 2 20:48 12/05/2020 43.0879402161 141.3573760986 3011852020.0 1.7 80.3 1.0 7.0 0
124954 Sailing 2 20:48 12/05/2020 43.0879402161 141.3573608398 3011852020.0 2.3 81.7 1.0 7.0 0
124953 Sailing 2 20:48 12/05/2020 43.0879402161 141.3573913574 3011852020.0 1.5 71.8 1.0 7.0 0
124952 Sailing 2 20:48 12/05/2020 43.0879325867 141.3573760986 3011852020.0 1.4 74.0 1.0 7.0 0
124951 Sailing 2 20:48 12/05/2020 43.0879402161 141.3573760986 3011852020.0 1.7 80.3 1.0 7.0 0
124950 Sailing 2 20:48 12/05/2020 43.0879402161 141.3573608398 3011852020.0 2.3 81.7 1.0 7.0 0
124949 Sailing 2 21:48 12/05/2020 43.0879402161 141.3573913574 3011852022.0 1.5 71.8 1.0 7.0 0
124948 Sailing 2 21:48 12/05/2020 43.0879325867 141.3573760986 3011852022.0 1.4 74.0 1.0 7.0 0
124947 Sailing 2 21:48 12/05/2020 43.0879402161 141.3573760986 3011852022.0 1.7 80.3 1.0 7.0 0
124946 Sailing 2 21:48 12/05/2020 43.0879402161 141.3573608398 3011852022.0 2.3 81.7 1.0 7.0 0
124945 Sailing 2 21:48 12/05/2020 43.0879402161 141.3573913574 3011852021.0 1.5 71.8 1.0 7.0 0
124944 Sailing 2 21:48 12/05/2020 43.0879325867 141.3573760986 3011852021.0 1.4 74.0 1.0 7.0 0
124943 Sailing 2 21:48 12/05/2020 43.0879402161 141.3573760986 3011852021.0 1.7 80.3 1.0 7.0 0
124942 Sailing 2 21:48 12/05/2020 43.0879402161 141.3573608398 3011852021.0 2.3 81.7 1.0 7.0 0
124941 Sailing 2 20:48 12/05/2020 43.0879402161 141.3573913574 3011852020.0 1.5 71.8 1.0 7.0 0
124940 Sailing 2 20:48 12/05/2020 43.0879325867 141.3573760986 3011852020.0 1.4 74.0 1.0 7.0 0
124939 Sailing 2 20:48 12/05/2020 43.0879402161 141.3573760986 3011852020.0 1.7 80.3 1.0 7.0 0
124938 Sailing 2 20:48 12/05/2020 43.0879402161 141.3573608398 3011852020.0 2.3 81.7 1.0 7.0 0
124937 Sailing 2 20:48 12/05/2020 43.0879402161 141.3573913574 3011852020.0 1.5 71.8 1.0 7.0 0
124936 Sailing 2 20:48 12/05/2020 43.0879325867 141.3573760986 3011852020.0 1.4 74.0 1.0 7.0 0
124935 Sailing 2 20:48 12/05/2020 43.0879402161 141.3573760986 3011852020.0 1.7 80.3 1.0 7.0 0
124934 Sailing 2 20:48 12/05/2020 43.0879402161 141.3573608398 3011852020.0 2.3 81.7 1.0 7.0 0
124933 Sailing 2 21:48 12/05/2020 43.0879402161 141.3573913574 3011852022.0 1.5 71.8 1.0 7.0 0
124932 Sailing 2 21:48 12/05/2020 43.0879325867 141.3573760986 3011852022.0 1.4 74.0 1.0 7.0 0
124931 Sailing 2 21:48 12/05/2020 43.0879402161 141.3573760986 3011852022.0 1.7 80.3 1.0 7.0 0
124930 Sailing 2 21:48 12/05/2020 43.0879402161 141.3573608398 3011852022.0 2.3 81.7 1.0 7.0 0
124929 Sailing 2 21:48 12/05/2020 43.0879402161 141.3573913574 3011852021.0 1.5 71.8 1.0 7.0 0
124928 Sailing 2 21:48 12/05/2020 43.0879325867 141.3573760986 3011852021.0 1.4 74.0 1.0 7.0 0
124927 Sailing 2 21:48 12/05/2020 43.0879402161 141.3573760986 3011852021.0 1.7 80.3 1.0 7.0 0
124926 Sailing 2 21:48 12/05/2020 43.0879402161 141.3573608398 3011852021.0 2.3 81.7 1.0 7.0 0
124925 Sailing 2 20:48 12/05/2020 43.0879402161 141.3573913574 3011852020.0 1.5 71.8 1.0 7.0 0
124924 Sailing 2 20:48 12/05/2020 43.0879325867 141.3573760986 3011852020.0 1.4 74.0 1.0 7.0 0
124923 Sailing 2 20:48 12/05/2020 43.0879402161 141.3573760986 3011852020.0 1.7 80.3 1.0 7.0 0
124922 Sailing 2 20:48 12/05/2020 43.0879402161 141.3573608398 3011852020.0 2.3 81.7 1.0 7.0 0
124921 Sailing 2 20:48 12/05/2020 43.0879402161 141.3573913574 3011852020.0 1.5 71.8 1.0 7.0 0
124920 Sailing 2 20:48 12/05/2020 43.0879325867 141.3573760986 3011852020.0 1.4 74.0 1.0 7.0 0
124919 Sailing 2 20:48 12/05/2020 43.0879402161 141.3573760986 3011852020.0 1.7 80.3 1.0 7.0 0
124918 Sailing 2 20:48 12/05/2020 43.0879402161 141.3573608398 3011852020.0 2.3 81.7 1.0 7.0 0
124917 Sailing 2 20:48 12/05/2020 43.0879402161 141.3573913574 3011852020.0 1.5 71.8 1.0 7.0 0
124916 Sailing 2 20:48 12/05/2020 43.0879325867 141.3573760986 3011852020.0 1.4 74.0 1.0 7.0 0
124915 Sailing 2 20:48 12/05/2020 43.0879402161 141.3573760986 3011852020.0 1.7 80.3 1.0 7.0 0
124914 Sailing 2 20:48 12/05/2020 43.0879402161 141.3573608398 3011852020.0 2.3 81.7 1.0 7.0 0
124913 Sailing 2 21:48 12/05/2020 43.0879402161 141.3573913574 3011852021.0 1.5 71.8 1.0 7.0 0
124912 Sailing 2 21:48 12/05/2020 43.0879325867 141.3573760986 3011852021.0 1.4 74.0 1.0 7.0 0
124911 Sailing 2 21:48 12/05/2020 43.0879402161 141.3573760986 3011852021.0 1.7 80.3 1.0 7.0 0
124910 Sailing 2 21:48 12/05/2020 43.0879402161 141.3573608398 3011852021.0 2.3 81.7 1.0 7.0 0
124909 Sailing 2 20:48 12/05/2020 43.0879402161 141.3573913574 3011852020.0 1.5 71.8 1.0 7.0 0
124908 Sailing 2 20:48 12/05/2020 43.0879325867 141.3573760986 3011852020.0 1.4 74.0 1.0 7.0 0
124907 Sailing 2 20:48 12/05/2020 43.0879402161 141.3573760986 3011852020.0 1.7 80.3 1.0 7.0 0
124906 Sailing 2 20:48 12/05/2020 43.0879402161 141.3573608398 3011852020.0 2.3 81.7 1.0 7.0 0
124905 Sailing 2 21:48 12/05/2020 43.0879402161 141.3573913574 3011852022.0 1.5 71.8 1.0 7.0 0
124904 Sailing 2 21:48 12/05/2020 43.0879325867 141.3573760986 3011852022.0 1.4 74.0 1.0 7.0 0
124903 Sailing 2 21:48 12/05/2020 43.0879402161 141.3573760986 3011852022.0 1.7 80.3 1.0 7.0 0
124902 Sailing 2 21:48 12/05/2020 43.0879402161 141.3573608398 3011852022.0 2.3 81.7 1.0 7.0 0
124901 Sailing 2 21:48 12/05/2020 43.0879402161 141.3573913574 3011852021.0 1.5 71.8 1.0 7.0 0
124900 Sailing 2 21:48 12/05/2020 43.0879325867 141.3573760986 3011852021.0 1.4 74.0 1.0 7.0 0
124899 Sailing 2 21:48 12/05/2020 43.0879402161 141.3573760986 3011852021.0 1.7 80.3 1.0 7.0 0
124898 Sailing 2 21:48 12/05/2020 43.0879402161 141.3573608398 3011852021.0 2.3 81.7 1.0 7.0 0
124897 Sailing 2 20:48 12/05/2020 43.0879402161 141.3573913574 3011852020.0 1.5 71.8 1.0 7.0 0
124896 Sailing 2 20:48 12/05/2020 43.0879325867 141.3573760986 3011852020.0 1.4 74.0 1.0 7.0 0
124895 Sailing 2 20:48 12/05/2020 43.0879402161 141.3573760986 3011852020.0 1.7 80.3 1.0 7.0 0
124894 Sailing 2 20:48 12/05/2020 43.0879402161 141.3573608398 3011852020.0 2.3 81.7 1.0 7.0 0
124893 Sailing 2 21:48 12/05/2020 43.0879402161 141.3573913574 3011852022.0 1.5 71.8 1.0 7.0 0
124892 Sailing 2 21:48 12/05/2020 43.0879325867 141.3573760986 3011852022.0 1.4 74.0 1.0 7.0 0
124891 Sailing 2 21:48 12/05/2020 43.0879402161 141.3573760986 3011852022.0 1.7 80.3 1.0 7.0 0
124890 Sailing 2 21:48 12/05/2020 43.0879402161 141.3573608398 3011852022.0 2.3 81.7 1.0 7.0 0
124889 Sailing 2 21:48 12/05/2020 43.0879402161 141.3573913574 3011852021.0 1.5 71.8 1.0 7.0 0
124888 Sailing 2 21:48 12/05/2020 43.0879325867 141.3573760986 3011852021.0 1.4 74.0 1.0 7.0 0
124887 Sailing 2 21:48 12/05/2020 43.0879402161 141.3573760986 3011852021.0 1.7 80.3 1.0 7.0 0
124886 Sailing 2 21:48 12/05/2020 43.0879402161 141.3573608398 3011852021.0 2.3 81.7 1.0 7.0 0
124885 Sailing 2 20:48 12/05/2020 43.0879402161 141.3573913574 3011852020.0 1.5 71.8 1.0 7.0 0
124884 Sailing 2 20:48 12/05/2020 43.0879325867 141.3573760986 3011852020.0 1.4 74.0 1.0 7.0 0
124883 Sailing 2 20:48 12/05/2020 43.0879402161 141.3573760986 3011852020.0 1.7 80.3 1.0 7.0 0
124882 Sailing 2 20:48 12/05/2020 43.0879402161 141.3573608398 3011852020.0 2.3 81.7 1.0 7.0 0
124881 Sailing 2 20:48 12/05/2020 43.0879402161 141.3573913574 3011852020.0 1.5 71.8 1.0 7.0 0
124880 Sailing 2 20:48 12/05/2020 43.0879325867 141.3573760986 3011852020.0 1.4 74.0 1.0 7.0 0
124879 Sailing 2 20:48 12/05/2020 43.0879402161 141.3573760986 3011852020.0 1.7 80.3 1.0 7.0 0
124878 Sailing 2 20:48 12/05/2020 43.0879402161 141.3573608398 3011852020.0 2.3 81.7 1.0 7.0 0
124877 Sailing 2 21:48 12/05/2020 43.0879402161 141.3573913574 3011852022.0 1.5 71.8 1.0 7.0 0
124876 Sailing 2 21:48 12/05/2020 43.0879325867 141.3573760986 3011852022.0 1.4 74.0 1.0 7.0 0
124875 Sailing 2 21:48 12/05/2020 43.0879402161 141.3573760986 3011852022.0 1.7 80.3 1.0 7.0 0
124874 Sailing 2 21:48 12/05/2020 43.0879402161 141.3573608398 3011852022.0 2.3 81.7 1.0 7.0 0
124873 Sailing 2 21:48 12/05/2020 43.0879402161 141.3573913574 3011852021.0 1.5 71.8 1.0 7.0 0
124872 Sailing 2 21:48 12/05/2020 43.0879325867 141.3573760986 3011852021.0 1.4 74.0 1.0 7.0 0
124871 Sailing 2 21:48 12/05/2020 43.0879402161 141.3573760986 3011852021.0 1.7 80.3 1.0 7.0 0
124870 Sailing 2 21:48 12/05/2020 43.0879402161 141.3573608398 3011852021.0 2.3 81.7 1.0 7.0 0
124869 Sailing 2 20:48 12/05/2020 43.0879402161 141.3573913574 3011852020.0 1.5 71.8 1.0 7.0 0
124868 Sailing 2 20:48 12/05/2020 43.0879325867 141.3573760986 3011852020.0 1.4 74.0 1.0 7.0 0
124867 Sailing 2 20:48 12/05/2020 43.0879402161 141.3573760986 3011852020.0 1.7 80.3 1.0 7.0 0
124866 Sailing 2 20:48 12/05/2020 43.0879402161 141.3573608398 3011852020.0 2.3 81.7 1.0 7.0 0
124780 Sailing 2 20:48 12/05/2020 43.0879402161 141.3573608398 3011852020.0 2.3 81.7 1.0 7.0 0
124779 Sailing 2 20:49 08/05/2020 43.0878486633 141.3576507568 11852020.0 1.7 92.1 1.0 6.0 0
124778 Sailing 2 20:48 08/05/2020 43.0879325867 141.357421875 11852020.0 2.4 67.8 1.0 7.0 0
124777 Sailing 2 20:49 08/05/2020 43.0878486633 141.3576507568 11852020.0 1.7 92.1 1.0 6.0 0
124776 Sailing 2 20:48 08/05/2020 43.0879325867 141.357421875 11852020.0 2.4 67.8 1.0 7.0 0
124775 Sailing 2 20:49 08/05/2020 43.0878486633 141.3576507568 363011852025.0 1.7 92.1 1.0 6.0 0
124774 Sailing 2 20:48 08/05/2020 43.0879325867 141.357421875 363011852025.0 2.4 67.8 1.0 7.0 0
124773 Sailing 2 20:49 08/05/2020 43.0878486633 141.3576507568 363011852020.0 1.7 92.1 1.0 6.0 0
124772 Sailing 2 20:48 08/05/2020 43.0879325867 141.357421875 363011852020.0 2.4 67.8 1.0 7.0 0
124771 Sailing 2 20:49 08/05/2020 43.0878486633 141.3576507568 363011852020.0 1.7 92.1 1.0 6.0 0
124770 Sailing 2 20:48 08/05/2020 43.0879325867 141.357421875 363011852020.0 2.4 67.8 1.0 7.0 0
124769 Sailing 2 20:49 08/05/2020 43.0878486633 141.3576507568 363011852020.0 1.7 92.1 1.0 6.0 0
124768 Sailing 2 20:48 08/05/2020 43.0879325867 141.357421875 363011852020.0 2.4 67.8 1.0 7.0 0
124767 Sailing 2 20:49 08/05/2020 43.0878486633 141.3576507568 363011852020.0 1.7 92.1 1.0 6.0 0
124766 Sailing 2 20:48 08/05/2020 43.0879325867 141.357421875 363011852020.0 2.4 67.8 1.0 7.0 0
124765 Sailing 2 20:53 08/05/2020 43.0864181519 141.3580932617 75311852020.0 3.1 290.6 1.0 6.0 0
124764 Sailing 2 20:53 08/05/2020 43.0864181519 141.3581085205 75311852020.0 2.9 291.7 1.0 6.0 0
124763 Sailing 2 20:53 08/05/2020 43.0864105225 141.3581390381 75311852020.0 3.2 289.4 1.0 6.0 0
124762 Sailing 2 20:53 08/05/2020 43.086391449 141.3581542969 75311852020.0 3.5 282.0 1.0 6.0 0
124761 Sailing 2 20:53 08/05/2020 43.0863838196 141.3581695557 75311852020.0 4.1 277.5 1.0 6.0 0
124760 Sailing 2 20:53 08/05/2020 43.0863761902 141.3581848145 75311852020.0 4.1 276.3 1.0 6.0 0
124759 Sailing 2 20:53 08/05/2020 43.0863761902 141.358215332 75311852020.0 3.6 266.9 1.0 6.0 0
124758 Sailing 2 20:53 08/05/2020 43.086353302 141.3582458496 75311852020.0 3.0 278.9 1.0 6.0 0
124757 Sailing 2 20:53 08/05/2020 43.0863456726 141.358291626 75311852020.0 2.8 289.0 1.0 6.0 0
124756 Sailing 2 20:53 08/05/2020 43.0863456726 141.3583068848 75311852020.0 2.7 279.6 1.0 6.0 0
124755 Sailing 2 20:53 08/05/2020 43.0863380432 141.3583221436 75311852020.0 2.4 289.0 1.0 7.0 0
124754 Sailing 2 20:53 08/05/2020 43.0863380432 141.3583526611 75311852020.0 2.1 296.5 1.0 7.0 0
124753 Sailing 2 20:53 08/05/2020 43.0863380432 141.3583679199 75311852020.0 2.6 303.0 1.0 6.0 0
124752 Sailing 2 20:53 08/05/2020 43.0863685608 141.3583831787 75311852020.0 2.7 315.1 1.0 6.0 0
124751 Sailing 2 20:53 08/05/2020 43.0863685608 141.3584136963 75311852020.0 2.8 312.5 1.0 6.0 0
124750 Sailing 2 20:53 08/05/2020 43.0863838196 141.3584289551 75311852020.0 2.9 288.2 1.0 6.0 0
124749 Sailing 2 20:53 08/05/2020 43.0863838196 141.3584442139 75311852020.0 3.2 251.3 1.0 6.0 0
124748 Sailing 2 20:53 08/05/2020 43.0863838196 141.3584899902 75311852020.0 3.2 256.4 1.0 6.0 0
124747 Sailing 2 20:53 08/05/2020 43.0864028931 141.358505249 75311852020.0 2.7 261.1 1.0 6.0 0
124746 Sailing 2 20:53 08/05/2020 43.0864257812 141.3585357666 75311852020.0 2.6 255.8 1.0 6.0 0
124745 Sailing 2 20:53 08/05/2020 43.0864334106 141.3585662842 75311852020.0 2.3 253.0 1.0 6.0 0
124744 Sailing 2 20:53 08/05/2020 43.08644104 141.358581543 75311852020.0 1.8 243.1 1.0 6.0 0
124743 Sailing 2 20:53 08/05/2020 43.08644104 141.3585968018 75311852020.0 1.8 238.8 1.0 6.0 0
124742 Sailing 2 20:53 08/05/2020 43.0864486694 141.3586120605 75311852020.0 2.4 256.8 1.0 6.0 0
124741 Sailing 2 20:53 08/05/2020 43.0864677429 141.3586273193 75311852020.0 1.9 253.6 1.0 6.0 0
124740 Sailing 2 20:53 08/05/2020 43.0864753723 141.3586425781 75311852020.0 1.7 262.1 1.0 6.0 0
124739 Sailing 2 20:53 08/05/2020 43.0864677429 141.3586883545 75311852020.0 1.5 269.7 1.0 6.0 0
124738 Sailing 2 20:53 08/05/2020 43.0864677429 141.3587036133 75311852020.0 1.8 265.1 1.0 6.0 0
124737 Sailing 2 20:53 08/05/2020 43.0864677429 141.3587188721 75311852020.0 2.1 271.8 1.0 7.0 0
124736 Sailing 2 20:53 08/05/2020 43.0864677429 141.3587799072 75311852020.0 2.8 272.3 1.0 7.0 0
124735 Sailing 2 20:53 08/05/2020 43.0864677429 141.358795166 75311852020.0 3.9 257.8 1.0 7.0 0
124734 Sailing 2 20:53 08/05/2020 43.08644104 141.3588256836 75311852020.0 4.1 262.8 1.0 6.0 0
124733 Sailing 2 20:53 08/05/2020 43.0864677429 141.35887146 75311852020.0 3.9 279.9 1.0 6.0 0
124732 Sailing 2 20:53 08/05/2020 43.0864982605 141.3589172363 75311852020.0 3.1 293.5 1.0 6.0 0
124731 Sailing 2 20:52 08/05/2020 43.0863456726 141.3590240479 325011852020.0 1.7 131.4 1.0 6.0 0
124730 Sailing 2 20:52 08/05/2020 43.0863685608 141.3591003418 325011852020.0 1.2 174.3 1.0 6.0 0
124729 Sailing 2 20:52 08/05/2020 43.0863838196 141.3591003418 325011852020.0 2.2 157.8 1.0 6.0 0
124728 Sailing 2 20:52 08/05/2020 43.0863685608 141.3591156006 325011852020.0 3.1 153.6 1.0 6.0 0
124727 Sailing 2 20:52 08/05/2020 43.0863761902 141.3591308594 325011852020.0 3.7 144.4 1.0 6.0 0
124726 Sailing 2 20:52 08/05/2020 43.0863838196 141.3591461182 325011852020.0 3.7 140.6 1.0 7.0 0
124725 Sailing 2 20:52 08/05/2020 43.086391449 141.3591156006 325011852020.0 3.7 133.3 1.0 7.0 0
124724 Sailing 2 20:52 08/05/2020 43.0864181519 141.3591003418 325011852020.0 3.0 127.0 1.0 7.0 0
124723 Sailing 2 20:52 08/05/2020 43.0864334106 141.3590698242 325011852020.0 2.9 140.6 1.0 7.0 0
124722 Sailing 2 20:52 08/05/2020 43.0864334106 141.3590393066 325011852020.0 3.0 155.5 1.0 6.0 0
124721 Sailing 2 20:52 08/05/2020 43.0864601135 141.3590240479 325011852020.0 3.0 157.8 1.0 6.0 0
124720 Sailing 2 20:52 08/05/2020 43.0864906311 141.3590393066 325011852020.0 3.6 156.5 1.0 6.0 0
124719 Sailing 2 20:52 08/05/2020 43.0865058899 141.3590545654 325011852020.0 3.4 151.1 1.0 6.0 0
124718 Sailing 2 20:52 08/05/2020 43.0865325928 141.3590545654 325011852020.0 3.1 141.7 1.0 6.0 0
124717 Sailing 2 20:52 08/05/2020 43.0865631104 141.3590698242 325011852020.0 2.1 161.3 1.0 6.0 0
124716 Sailing 2 20:52 08/05/2020 43.0866279602 141.3590698242 325011852020.0 1.6 153.9 1.0 6.0 0
124715 Sailing 2 20:52 08/05/2020 43.0867424011 141.3591461182 325011852020.0 1.6 126.7 1.0 7.0 0
124714 Sailing 2 20:52 08/05/2020 43.0867843628 141.3591461182 325011852020.0 1.9 88.1 1.0 7.0 0
124713 Sailing 2 20:52 08/05/2020 43.0868263245 141.3591461182 325011852020.0 2.0 47.8 1.0 7.0 0
124712 Sailing 2 20:52 08/05/2020 43.0868721008 141.3591156006 325011852020.0 1.8 21.7 1.0 7.0 0
124711 Sailing 2 20:52 08/05/2020 43.0868988037 141.3590698242 325011852020.0 1.9 13.3 1.0 7.0 0
124710 Sailing 2 20:52 08/05/2020 43.0868911743 141.3590698242 325011852020.0 3.1 345.3 1.0 7.0 0
124709 Sailing 2 20:52 08/05/2020 43.0868911743 141.3590393066 325011852020.0 2.1 4.5 1.0 5.0 0
124708 Sailing 2 20:52 08/05/2020 43.0868492126 141.3590545654 325011852020.0 2.1 33.0 1.0 5.0 0
124707 Sailing 2 20:52 08/05/2020 43.0868263245 141.3590698242 325011852020.0 1.8 44.1 1.0 5.0 0
124706 Sailing 2 20:52 08/05/2020 43.0867919922 141.3590698242 325011852020.0 2.0 58.2 1.0 5.0 0
124705 Sailing 2 20:52 08/05/2020 43.0867576599 141.3590545654 325011852020.0 2.0 66.1 1.0 5.0 0
124704 Sailing 2 20:52 08/05/2020 43.0867271423 141.3590393066 325011852020.0 1.2 51.1 1.0 6.0 0
124703 Sailing 2 20:52 08/05/2020 43.0867271423 141.3590240479 325011852020.0 0.9 70.6 1.0 7.0 0
124702 Sailing 2 20:52 08/05/2020 43.0867195129 141.3590240479 325011852020.0 1.1 114.0 1.0 7.0 0
124701 Sailing 2 20:52 08/05/2020 43.0867195129 141.3589935303 325011852020.0 0.6 42.6 1.0 7.0 0
124700 Sailing 2 20:52 08/05/2020 43.0867195129 141.3589782715 325011852020.0 0.5 40.0 1.0 7.0 0
124699 Sailing 2 20:52 08/05/2020 43.0867118835 141.3589782715 325011852020.0 1.3 73.8 1.0 7.0 0
124698 Sailing 2 20:52 08/05/2020 43.0867118835 141.3589630127 325011852020.0 1.1 55.1 1.0 7.0 0
124697 Sailing 2 20:52 08/05/2020 43.0866851807 141.3589630127 325011852020.0 1.4 70.7 1.0 7.0 0
124696 Sailing 2 20:52 08/05/2020 43.0866699219 141.3589477539 325011852020.0 1.9 86.3 1.0 6.0 0
124695 Sailing 2 20:52 08/05/2020 43.0866546631 141.3589324951 325011852020.0 2.3 91.6 1.0 6.0 0
124694 Sailing 2 20:51 08/05/2020 43.0865974426 141.3589172363 325011852020.0 2.2 106.7 1.0 6.0 0
124693 Sailing 2 20:51 08/05/2020 43.0864982605 141.3589019775 325011852020.0 1.3 110.7 1.0 6.0 0
124692 Sailing 2 20:51 08/05/2020 43.0864906311 141.3588867188 325011852020.0 1.8 158.4 1.0 6.0 0
124691 Sailing 2 20:51 08/05/2020 43.0864830017 141.3588867188 325011852020.0 2.8 158.1 1.0 6.0 0
124690 Sailing 2 20:51 08/05/2020 43.0864677429 141.35887146 325011852020.0 2.8 155.1 1.0 6.0 0
124689 Sailing 2 20:51 08/05/2020 43.0864906311 141.35887146 325011852020.0 3.4 169.4 1.0 6.0 0
124688 Sailing 2 20:51 08/05/2020 43.0865058899 141.3588562012 325011852020.0 4.0 152.7 1.0 7.0 0
124687 Sailing 2 20:51 08/05/2020 43.0864830017 141.35887146 325011852020.0 3.4 171.9 1.0 6.0 0
124686 Sailing 2 20:51 08/05/2020 43.0864982605 141.3588409424 325011852020.0 3.4 173.8 1.0 6.0 0
124685 Sailing 2 20:51 08/05/2020 43.0865058899 141.3588256836 325011852020.0 3.2 174.1 1.0 6.0 0
124684 Sailing 2 20:51 08/05/2020 43.0865249634 141.3588256836 325011852020.0 3.8 171.2 1.0 6.0 0
124683 Sailing 2 20:51 08/05/2020 43.0864982605 141.3588409424 325011852020.0 3.9 172.7 1.0 5.0 0
124682 Sailing 2 20:51 08/05/2020 43.0865135193 141.3588256836 325011852020.0 3.9 174.6 1.0 5.0 0
124681 Sailing 2 20:51 08/05/2020 43.0865325928 141.3588256836 325011852020.0 3.7 180.7 1.0 5.0 0
124680 Sailing 2 20:51 08/05/2020 43.086555481 141.3588256836 325011852020.0 4.6 179.6 1.0 4.0 0
124679 Sailing 2 20:51 08/05/2020 43.0865631104 141.3588256836 325011852020.0 4.3 182.0 1.0 4.0 0
124678 Sailing 2 20:51 08/05/2020 43.0865707397 141.3588256836 325011852020.0 4.0 187.2 1.0 4.0 0
124677 Sailing 2 20:51 08/05/2020 43.0865821838 141.3588256836 325011852020.0 3.5 180.7 1.0 4.0 0
124676 Sailing 2 20:51 08/05/2020 43.0865898132 141.3588256836 325011852020.0 3.4 164.1 1.0 4.0 0
124675 Sailing 2 20:51 08/05/2020 43.0865898132 141.3588409424 325011852020.0 2.8 163.0 1.0 4.0 0
124674 Sailing 2 20:51 08/05/2020 43.086605072 141.3588256836 325011852020.0 3.1 170.3 1.0 5.0 0
124673 Sailing 2 20:51 08/05/2020 43.0865631104 141.3588409424 325011852020.0 4.8 170.2 1.0 5.0 0
124672 Sailing 2 20:51 08/05/2020 43.0864906311 141.3588562012 325011852020.0 5.3 177.7 1.0 6.0 0
124671 Sailing 2 20:51 08/05/2020 43.0865058899 141.3588409424 325011852020.0 5.6 184.7 1.0 6.0 0
124670 Sailing 2 20:51 08/05/2020 43.0865249634 141.3588256836 325011852020.0 5.7 180.8 1.0 6.0 0
124669 Sailing 2 20:51 08/05/2020 43.0865402222 141.3588409424 325011852020.0 5.6 178.9 1.0 5.0 0
124668 Sailing 2 20:51 08/05/2020 43.0865478516 141.3588256836 325011852020.0 6.0 178.5 1.0 5.0 0
124667 Sailing 2 20:51 08/05/2020 43.0865478516 141.3588409424 325011852020.0 6.0 172.1 1.0 5.0 0
124666 Sailing 2 20:51 08/05/2020 43.0865631104 141.3588409424 325011852020.0 5.5 173.9 1.0 5.0 0
124665 Sailing 2 20:51 08/05/2020 43.0866127014 141.3588409424 325011852020.0 5.3 176.5 1.0 5.0 0
124664 Sailing 2 20:51 08/05/2020 43.0866699219 141.3588256836 325011852020.0 5.1 178.2 1.0 5.0 0
124663 Sailing 2 20:51 08/05/2020 43.0867118835 141.3588256836 325011852020.0 4.6 178.6 1.0 4.0 0
124662 Sailing 2 20:51 08/05/2020 43.0867271423 141.3588256836 325011852020.0 3.9 180.7 1.0 5.0 0
124661 Sailing 2 20:51 08/05/2020 43.0867576599 141.3588256836 325011852020.0 4.2 172.8 1.0 6.0 0